sensor_id;sensor_type;location;lat;lon;timestamp;P1;durP1;ratioP1;P2;durP2;ratioP2
24567;SDS011;12731;52.182;8.716;2022-12-18T00:01:19;48.08;;;24.48;;
24567;SDS011;12731;52.182;8.716;2022-12-18T00:03:47;46.10;;;23.60;;
24567;SDS011;12731;52.182;8.716;2022-12-18T00:06:14;45.45;;;24.00;;
24567;SDS011;12731;52.182;8.716;2022-12-18T00:08:42;44.28;;;23.13;;
24567;SDS011;12731;52.182;8.716;2022-12-18T00:11:13;45.30;;;23.20;;
24567;SDS011;12731;52.182;8.716;2022-12-18T00:13:41;40.75;;;22.58;;
24567;SDS011;12731;52.182;8.716;2022-12-18T00:16:09;46.30;;;23.88;;
24567;SDS011;12731;52.182;8.716;2022-12-18T00:18:38;44.72;;;23.35;;
24567;SDS011;12731;52.182;8.716;2022-12-18T00:21:06;47.33;;;23.83;;
24567;SDS011;12731;52.182;8.716;2022-12-18T00:23:34;51.60;;;25.48;;
24567;SDS011;12731;52.182;8.716;2022-12-18T00:26:07;55.35;;;27.42;;
24567;SDS011;12731;52.182;8.716;2022-12-18T00:28:36;52.67;;;27.85;;
24567;SDS011;12731;52.182;8.716;2022-12-18T00:31:03;50.95;;;28.27;;
24567;SDS011;12731;52.182;8.716;2022-12-18T00:33:32;51.55;;;27.98;;
24567;SDS011;12731;52.182;8.716;2022-12-18T00:36:09;50.10;;;28.20;;
24567;SDS011;12731;52.182;8.716;2022-12-18T00:38:40;47.05;;;26.98;;
24567;SDS011;12731;52.182;8.716;2022-12-18T00:41:07;59.40;;;31.80;;
24567;SDS011;12731;52.182;8.716;2022-12-18T00:43:36;64.10;;;34.33;;
24567;SDS011;12731;52.182;8.716;2022-12-18T00:46:04;68.88;;;39.47;;
24567;SDS011;12731;52.182;8.716;2022-12-18T00:48:31;71.38;;;37.47;;
24567;SDS011;12731;52.182;8.716;2022-12-18T00:50:57;66.43;;;35.83;;
24567;SDS011;12731;52.182;8.716;2022-12-18T00:53:24;36.88;;;20.27;;
24567;SDS011;12731;52.182;8.716;2022-12-18T00:55:50;26.63;;;13.45;;
24567;SDS011;12731;52.182;8.716;2022-12-18T00:58:17;63.00;;;34.55;;
24567;SDS011;12731;52.182;8.716;2022-12-18T01:00:44;64.78;;;36.88;;
24567;SDS011;12731;52.182;8.716;2022-12-18T01:03:13;72.97;;;39.35;;
24567;SDS011;12731;52.182;8.716;2022-12-18T01:05:40;66.80;;;35.33;;
24567;SDS011;12731;52.182;8.716;2022-12-18T01:08:07;63.13;;;35.25;;
24567;SDS011;12731;52.182;8.716;2022-12-18T01:10:34;60.88;;;31.85;;
24567;SDS011;12731;52.182;8.716;2022-12-18T01:13:00;49.97;;;27.85;;
24567;SDS011;12731;52.182;8.716;2022-12-18T01:15:26;43.58;;;23.13;;
24567;SDS011;12731;52.182;8.716;2022-12-18T01:17:53;31.63;;;18.17;;
24567;SDS011;12731;52.182;8.716;2022-12-18T01:20:20;31.08;;;16.27;;
24567;SDS011;12731;52.182;8.716;2022-12-18T01:22:46;29.85;;;17.13;;
24567;SDS011;12731;52.182;8.716;2022-12-18T01:25:13;49.13;;;25.52;;
24567;SDS011;12731;52.182;8.716;2022-12-18T01:27:39;45.60;;;26.70;;
24567;SDS011;12731;52.182;8.716;2022-12-18T01:30:06;45.97;;;25.27;;
24567;SDS011;12731;52.182;8.716;2022-12-18T01:32:33;43.40;;;24.77;;
24567;SDS011;12731;52.182;8.716;2022-12-18T01:34:59;44.08;;;23.65;;
24567;SDS011;12731;52.182;8.716;2022-12-18T01:37:26;37.75;;;22.60;;
24567;SDS011;12731;52.182;8.716;2022-12-18T01:39:52;46.03;;;23.92;;
24567;SDS011;12731;52.182;8.716;2022-12-18T01:42:20;51.92;;;26.58;;
24567;SDS011;12731;52.182;8.716;2022-12-18T01:44:53;43.40;;;25.50;;
24567;SDS011;12731;52.182;8.716;2022-12-18T01:47:42;48.00;;;26.97;;
24567;SDS011;12731;52.182;8.716;2022-12-18T01:50:13;51.70;;;28.65;;
24567;SDS011;12731;52.182;8.716;2022-12-18T01:52:43;51.30;;;27.95;;
24567;SDS011;12731;52.182;8.716;2022-12-18T01:55:11;55.22;;;29.45;;
24567;SDS011;12731;52.182;8.716;2022-12-18T01:57:38;54.17;;;28.67;;
24567;SDS011;12731;52.182;8.716;2022-12-18T02:00:07;53.97;;;27.65;;
24567;SDS011;12731;52.182;8.716;2022-12-18T02:02:38;50.92;;;27.60;;
24567;SDS011;12731;52.182;8.716;2022-12-18T02:05:06;50.20;;;27.90;;
24567;SDS011;12731;52.182;8.716;2022-12-18T02:07:55;51.72;;;27.27;;
24567;SDS011;12731;52.182;8.716;2022-12-18T02:13:12;49.35;;;25.92;;
24567;SDS011;12731;52.182;8.716;2022-12-18T02:20:47;50.92;;;26.27;;
24567;SDS011;12731;52.182;8.716;2022-12-18T02:26:21;51.67;;;27.92;;
24567;SDS011;12731;52.182;8.716;2022-12-18T02:28:57;62.75;;;33.42;;
24567;SDS011;12731;52.182;8.716;2022-12-18T02:31:27;53.25;;;29.60;;
24567;SDS011;12731;52.182;8.716;2022-12-18T02:33:56;58.50;;;30.55;;
24567;SDS011;12731;52.182;8.716;2022-12-18T02:36:27;52.90;;;29.10;;
24567;SDS011;12731;52.182;8.716;2022-12-18T02:38:54;56.50;;;29.48;;
24567;SDS011;12731;52.182;8.716;2022-12-18T02:41:21;53.70;;;30.13;;
24567;SDS011;12731;52.182;8.716;2022-12-18T02:43:48;59.13;;;31.45;;
24567;SDS011;12731;52.182;8.716;2022-12-18T02:46:50;59.80;;;31.98;;
24567;SDS011;12731;52.182;8.716;2022-12-18T02:51:50;60.92;;;31.98;;
24567;SDS011;12731;52.182;8.716;2022-12-18T02:59:56;53.38;;;29.98;;
24567;SDS011;12731;52.182;8.716;2022-12-18T03:02:43;60.55;;;31.17;;
24567;SDS011;12731;52.182;8.716;2022-12-18T03:05:20;53.78;;;29.10;;
24567;SDS011;12731;52.182;8.716;2022-12-18T03:08:00;54.13;;;27.20;;
24567;SDS011;12731;52.182;8.716;2022-12-18T03:13:05;54.78;;;27.58;;
24567;SDS011;12731;52.182;8.716;2022-12-18T03:15:42;52.67;;;28.45;;
24567;SDS011;12731;52.182;8.716;2022-12-18T03:18:16;49.42;;;26.85;;
24567;SDS011;12731;52.182;8.716;2022-12-18T03:20:44;52.40;;;26.08;;
24567;SDS011;12731;52.182;8.716;2022-12-18T03:23:14;43.33;;;21.58;;
24567;SDS011;12731;52.182;8.716;2022-12-18T03:25:42;37.78;;;20.02;;
24567;SDS011;12731;52.182;8.716;2022-12-18T03:28:12;32.08;;;17.85;;
24567;SDS011;12731;52.182;8.716;2022-12-18T03:30:40;28.27;;;14.93;;
24567;SDS011;12731;52.182;8.716;2022-12-18T03:33:09;25.48;;;13.98;;
24567;SDS011;12731;52.182;8.716;2022-12-18T03:35:39;26.30;;;15.00;;
24567;SDS011;12731;52.182;8.716;2022-12-18T03:38:08;23.63;;;14.45;;
24567;SDS011;12731;52.182;8.716;2022-12-18T03:43:44;28.13;;;15.32;;
24567;SDS011;12731;52.182;8.716;2022-12-18T03:47:27;24.02;;;13.35;;
24567;SDS011;12731;52.182;8.716;2022-12-18T03:50:13;23.88;;;12.65;;
24567;SDS011;12731;52.182;8.716;2022-12-18T03:52:48;22.23;;;12.20;;
24567;SDS011;12731;52.182;8.716;2022-12-18T03:55:17;26.67;;;15.18;;
24567;SDS011;12731;52.182;8.716;2022-12-18T03:57:45;28.42;;;15.07;;
24567;SDS011;12731;52.182;8.716;2022-12-18T04:00:13;28.52;;;14.18;;
24567;SDS011;12731;52.182;8.716;2022-12-18T04:02:50;25.98;;;14.02;;
24567;SDS011;12731;52.182;8.716;2022-12-18T04:05:20;28.17;;;15.63;;
24567;SDS011;12731;52.182;8.716;2022-12-18T04:07:48;28.00;;;16.65;;
24567;SDS011;12731;52.182;8.716;2022-12-18T04:10:15;34.15;;;17.90;;
24567;SDS011;12731;52.182;8.716;2022-12-18T04:12:42;31.45;;;18.30;;
24567;SDS011;12731;52.182;8.716;2022-12-18T04:15:09;34.95;;;18.55;;
24567;SDS011;12731;52.182;8.716;2022-12-18T04:17:37;35.50;;;17.80;;
24567;SDS011;12731;52.182;8.716;2022-12-18T04:20:04;30.90;;;16.75;;
24567;SDS011;12731;52.182;8.716;2022-12-18T04:22:31;31.83;;;17.23;;
24567;SDS011;12731;52.182;8.716;2022-12-18T04:24:57;32.53;;;16.70;;
24567;SDS011;12731;52.182;8.716;2022-12-18T04:27:23;29.55;;;16.00;;
24567;SDS011;12731;52.182;8.716;2022-12-18T04:29:50;28.00;;;15.13;;
24567;SDS011;12731;52.182;8.716;2022-12-18T04:32:16;29.38;;;14.55;;
24567;SDS011;12731;52.182;8.716;2022-12-18T04:34:43;29.13;;;14.32;;
24567;SDS011;12731;52.182;8.716;2022-12-18T04:37:09;27.08;;;14.52;;
24567;SDS011;12731;52.182;8.716;2022-12-18T04:39:36;26.80;;;13.45;;
24567;SDS011;12731;52.182;8.716;2022-12-18T04:42:02;27.08;;;13.82;;
24567;SDS011;12731;52.182;8.716;2022-12-18T04:44:28;23.92;;;13.63;;
24567;SDS011;12731;52.182;8.716;2022-12-18T04:46:55;24.77;;;14.00;;
24567;SDS011;12731;52.182;8.716;2022-12-18T04:49:21;25.77;;;14.05;;
24567;SDS011;12731;52.182;8.716;2022-12-18T04:51:48;22.73;;;13.50;;
24567;SDS011;12731;52.182;8.716;2022-12-18T04:54:14;22.00;;;12.02;;
24567;SDS011;12731;52.182;8.716;2022-12-18T04:56:41;26.17;;;12.88;;
24567;SDS011;12731;52.182;8.716;2022-12-18T04:59:07;23.63;;;12.32;;
24567;SDS011;12731;52.182;8.716;2022-12-18T05:01:34;25.83;;;12.40;;
24567;SDS011;12731;52.182;8.716;2022-12-18T05:04:01;24.17;;;12.20;;
24567;SDS011;12731;52.182;8.716;2022-12-18T05:06:28;24.42;;;11.70;;
24567;SDS011;12731;52.182;8.716;2022-12-18T05:08:55;25.25;;;12.27;;
24567;SDS011;12731;52.182;8.716;2022-12-18T05:11:21;19.90;;;10.52;;
24567;SDS011;12731;52.182;8.716;2022-12-18T05:13:48;25.25;;;12.45;;
24567;SDS011;12731;52.182;8.716;2022-12-18T05:16:14;20.25;;;11.23;;
24567;SDS011;12731;52.182;8.716;2022-12-18T05:18:41;21.15;;;10.82;;
24567;SDS011;12731;52.182;8.716;2022-12-18T05:21:08;22.80;;;11.80;;
24567;SDS011;12731;52.182;8.716;2022-12-18T05:23:34;20.23;;;11.57;;
24567;SDS011;12731;52.182;8.716;2022-12-18T05:26:02;22.58;;;11.77;;
24567;SDS011;12731;52.182;8.716;2022-12-18T05:28:30;20.70;;;11.55;;
24567;SDS011;12731;52.182;8.716;2022-12-18T05:30:59;22.27;;;11.75;;
24567;SDS011;12731;52.182;8.716;2022-12-18T05:33:28;24.77;;;13.05;;
24567;SDS011;12731;52.182;8.716;2022-12-18T05:35:56;26.30;;;13.95;;
24567;SDS011;12731;52.182;8.716;2022-12-18T05:38:24;28.10;;;14.68;;
24567;SDS011;12731;52.182;8.716;2022-12-18T05:40:52;23.50;;;12.80;;
24567;SDS011;12731;52.182;8.716;2022-12-18T05:43:20;25.13;;;13.68;;
24567;SDS011;12731;52.182;8.716;2022-12-18T05:45:48;21.90;;;12.40;;
24567;SDS011;12731;52.182;8.716;2022-12-18T05:48:15;22.83;;;12.65;;
24567;SDS011;12731;52.182;8.716;2022-12-18T05:50:42;26.15;;;12.43;;
24567;SDS011;12731;52.182;8.716;2022-12-18T05:53:10;25.95;;;12.50;;
24567;SDS011;12731;52.182;8.716;2022-12-18T05:55:37;24.50;;;12.52;;
24567;SDS011;12731;52.182;8.716;2022-12-18T05:58:05;23.85;;;12.80;;
24567;SDS011;12731;52.182;8.716;2022-12-18T06:00:33;25.98;;;13.45;;
24567;SDS011;12731;52.182;8.716;2022-12-18T06:03:01;26.17;;;14.20;;
24567;SDS011;12731;52.182;8.716;2022-12-18T06:05:28;28.00;;;13.75;;
24567;SDS011;12731;52.182;8.716;2022-12-18T06:07:54;27.33;;;13.82;;
24567;SDS011;12731;52.182;8.716;2022-12-18T06:10:21;25.25;;;14.43;;
24567;SDS011;12731;52.182;8.716;2022-12-18T06:12:47;28.35;;;14.93;;
24567;SDS011;12731;52.182;8.716;2022-12-18T06:15:14;29.98;;;13.85;;
24567;SDS011;12731;52.182;8.716;2022-12-18T06:17:41;28.77;;;14.73;;
24567;SDS011;12731;52.182;8.716;2022-12-18T06:20:09;26.52;;;14.00;;
24567;SDS011;12731;52.182;8.716;2022-12-18T06:22:36;24.88;;;12.88;;
24567;SDS011;12731;52.182;8.716;2022-12-18T06:25:02;24.25;;;13.23;;
24567;SDS011;12731;52.182;8.716;2022-12-18T06:27:29;26.23;;;14.32;;
24567;SDS011;12731;52.182;8.716;2022-12-18T06:29:55;25.77;;;13.75;;
24567;SDS011;12731;52.182;8.716;2022-12-18T06:32:22;23.60;;;12.85;;
24567;SDS011;12731;52.182;8.716;2022-12-18T06:34:48;25.15;;;13.95;;
24567;SDS011;12731;52.182;8.716;2022-12-18T06:37:15;27.70;;;14.48;;
24567;SDS011;12731;52.182;8.716;2022-12-18T06:39:41;25.50;;;14.13;;
24567;SDS011;12731;52.182;8.716;2022-12-18T06:42:08;28.15;;;15.10;;
24567;SDS011;12731;52.182;8.716;2022-12-18T06:44:34;24.65;;;14.50;;
24567;SDS011;12731;52.182;8.716;2022-12-18T06:47:01;27.63;;;14.27;;
24567;SDS011;12731;52.182;8.716;2022-12-18T06:49:27;27.73;;;14.35;;
24567;SDS011;12731;52.182;8.716;2022-12-18T06:51:56;22.63;;;13.93;;
24567;SDS011;12731;52.182;8.716;2022-12-18T06:54:22;30.73;;;15.73;;
24567;SDS011;12731;52.182;8.716;2022-12-18T06:56:49;30.13;;;16.60;;
24567;SDS011;12731;52.182;8.716;2022-12-18T06:59:16;26.75;;;16.58;;
24567;SDS011;12731;52.182;8.716;2022-12-18T07:01:42;29.27;;;16.55;;
24567;SDS011;12731;52.182;8.716;2022-12-18T07:04:09;31.88;;;15.93;;
24567;SDS011;12731;52.182;8.716;2022-12-18T07:06:35;29.10;;;16.10;;
24567;SDS011;12731;52.182;8.716;2022-12-18T07:09:02;32.17;;;17.75;;
24567;SDS011;12731;52.182;8.716;2022-12-18T07:11:28;35.08;;;18.58;;
24567;SDS011;12731;52.182;8.716;2022-12-18T07:13:55;44.65;;;25.10;;
24567;SDS011;12731;52.182;8.716;2022-12-18T07:16:21;53.40;;;27.92;;
24567;SDS011;12731;52.182;8.716;2022-12-18T07:18:51;63.10;;;30.92;;
24567;SDS011;12731;52.182;8.716;2022-12-18T07:21:20;53.95;;;27.60;;
24567;SDS011;12731;52.182;8.716;2022-12-18T07:23:47;49.45;;;25.92;;
24567;SDS011;12731;52.182;8.716;2022-12-18T07:26:15;48.97;;;25.90;;
24567;SDS011;12731;52.182;8.716;2022-12-18T07:28:43;38.80;;;21.70;;
24567;SDS011;12731;52.182;8.716;2022-12-18T07:31:11;32.53;;;18.63;;
24567;SDS011;12731;52.182;8.716;2022-12-18T07:33:39;27.65;;;13.48;;
24567;SDS011;12731;52.182;8.716;2022-12-18T07:36:07;24.80;;;12.43;;
24567;SDS011;12731;52.182;8.716;2022-12-18T07:38:34;24.92;;;11.88;;
24567;SDS011;12731;52.182;8.716;2022-12-18T07:41:05;25.73;;;13.05;;
24567;SDS011;12731;52.182;8.716;2022-12-18T07:43:33;28.50;;;13.23;;
24567;SDS011;12731;52.182;8.716;2022-12-18T07:46:00;21.95;;;12.90;;
24567;SDS011;12731;52.182;8.716;2022-12-18T07:48:27;25.50;;;13.32;;
24567;SDS011;12731;52.182;8.716;2022-12-18T07:50:58;25.58;;;13.60;;
24567;SDS011;12731;52.182;8.716;2022-12-18T07:53:28;27.88;;;13.27;;
24567;SDS011;12731;52.182;8.716;2022-12-18T07:56:02;24.38;;;13.55;;
24567;SDS011;12731;52.182;8.716;2022-12-18T07:58:51;25.80;;;12.77;;
24567;SDS011;12731;52.182;8.716;2022-12-18T08:01:17;27.25;;;13.05;;
24567;SDS011;12731;52.182;8.716;2022-12-18T08:03:44;22.90;;;12.30;;
24567;SDS011;12731;52.182;8.716;2022-12-18T08:06:10;21.38;;;12.10;;
24567;SDS011;12731;52.182;8.716;2022-12-18T08:08:37;25.20;;;13.50;;
24567;SDS011;12731;52.182;8.716;2022-12-18T08:11:03;24.88;;;13.55;;
24567;SDS011;12731;52.182;8.716;2022-12-18T08:13:30;24.92;;;13.32;;
24567;SDS011;12731;52.182;8.716;2022-12-18T08:18:27;22.10;;;12.05;;
24567;SDS011;12731;52.182;8.716;2022-12-18T08:20:54;22.13;;;12.27;;
24567;SDS011;12731;52.182;8.716;2022-12-18T08:23:21;25.30;;;13.70;;
24567;SDS011;12731;52.182;8.716;2022-12-18T08:25:47;21.27;;;12.38;;
24567;SDS011;12731;52.182;8.716;2022-12-18T08:28:14;19.33;;;11.50;;
24567;SDS011;12731;52.182;8.716;2022-12-18T08:30:40;23.42;;;12.45;;
24567;SDS011;12731;52.182;8.716;2022-12-18T08:33:08;22.63;;;12.38;;
24567;SDS011;12731;52.182;8.716;2022-12-18T08:35:35;22.27;;;11.43;;
24567;SDS011;12731;52.182;8.716;2022-12-18T08:38:10;20.70;;;11.45;;
24567;SDS011;12731;52.182;8.716;2022-12-18T08:40:37;19.67;;;11.32;;
24567;SDS011;12731;52.182;8.716;2022-12-18T08:43:03;20.58;;;10.55;;
24567;SDS011;12731;52.182;8.716;2022-12-18T08:45:48;20.70;;;11.48;;
24567;SDS011;12731;52.182;8.716;2022-12-18T08:48:15;20.63;;;11.68;;
24567;SDS011;12731;52.182;8.716;2022-12-18T08:50:54;17.55;;;10.43;;
24567;SDS011;12731;52.182;8.716;2022-12-18T08:53:23;22.00;;;11.50;;
24567;SDS011;12731;52.182;8.716;2022-12-18T08:55:50;19.65;;;10.80;;
24567;SDS011;12731;52.182;8.716;2022-12-18T08:58:16;21.75;;;12.05;;
24567;SDS011;12731;52.182;8.716;2022-12-18T09:00:43;21.27;;;11.65;;
24567;SDS011;12731;52.182;8.716;2022-12-18T09:03:13;20.00;;;11.13;;
24567;SDS011;12731;52.182;8.716;2022-12-18T09:05:45;22.08;;;11.55;;
24567;SDS011;12731;52.182;8.716;2022-12-18T09:08:11;18.08;;;10.48;;
24567;SDS011;12731;52.182;8.716;2022-12-18T09:10:44;19.05;;;10.75;;
24567;SDS011;12731;52.182;8.716;2022-12-18T09:13:12;17.98;;;10.30;;
24567;SDS011;12731;52.182;8.716;2022-12-18T09:15:41;20.83;;;10.75;;
24567;SDS011;12731;52.182;8.716;2022-12-18T09:18:12;18.58;;;10.30;;
24567;SDS011;12731;52.182;8.716;2022-12-18T09:20:39;18.23;;;10.27;;
24567;SDS011;12731;52.182;8.716;2022-12-18T09:23:06;16.77;;;10.02;;
24567;SDS011;12731;52.182;8.716;2022-12-18T09:25:33;20.70;;;10.15;;
24567;SDS011;12731;52.182;8.716;2022-12-18T09:28:02;15.52;;;9.88;;
24567;SDS011;12731;52.182;8.716;2022-12-18T09:30:32;15.98;;;9.60;;
24567;SDS011;12731;52.182;8.716;2022-12-18T09:33:02;15.48;;;9.52;;
24567;SDS011;12731;52.182;8.716;2022-12-18T09:35:28;15.10;;;8.95;;
24567;SDS011;12731;52.182;8.716;2022-12-18T09:37:56;16.73;;;8.60;;
24567;SDS011;12731;52.182;8.716;2022-12-18T09:40:23;15.75;;;9.20;;
24567;SDS011;12731;52.182;8.716;2022-12-18T09:42:54;17.15;;;9.50;;
24567;SDS011;12731;52.182;8.716;2022-12-18T09:45:24;15.55;;;8.65;;
24567;SDS011;12731;52.182;8.716;2022-12-18T09:47:50;15.57;;;8.75;;
24567;SDS011;12731;52.182;8.716;2022-12-18T09:50:27;16.13;;;8.50;;
24567;SDS011;12731;52.182;8.716;2022-12-18T09:52:59;13.25;;;7.90;;
24567;SDS011;12731;52.182;8.716;2022-12-18T09:55:33;12.38;;;7.32;;
24567;SDS011;12731;52.182;8.716;2022-12-18T09:58:47;12.85;;;7.82;;
24567;SDS011;12731;52.182;8.716;2022-12-18T10:00:54;12.80;;;7.63;;
24567;SDS011;12731;52.182;8.716;2022-12-18T10:03:21;14.35;;;7.72;;
24567;SDS011;12731;52.182;8.716;2022-12-18T10:08:25;14.93;;;7.72;;
24567;SDS011;12731;52.182;8.716;2022-12-18T10:11:09;12.70;;;7.30;;
24567;SDS011;12731;52.182;8.716;2022-12-18T10:19:50;10.27;;;6.03;;
24567;SDS011;12731;52.182;8.716;2022-12-18T10:25:01;10.35;;;6.13;;
24567;SDS011;12731;52.182;8.716;2022-12-18T10:27:32;10.90;;;6.35;;
24567;SDS011;12731;52.182;8.716;2022-12-18T10:29:58;11.05;;;6.15;;
24567;SDS011;12731;52.182;8.716;2022-12-18T10:32:27;8.95;;;5.63;;
24567;SDS011;12731;52.182;8.716;2022-12-18T10:34:55;12.60;;;6.90;;
24567;SDS011;12731;52.182;8.716;2022-12-18T10:37:27;11.95;;;6.78;;
24567;SDS011;12731;52.182;8.716;2022-12-18T10:40:14;11.10;;;6.72;;
24567;SDS011;12731;52.182;8.716;2022-12-18T10:45:23;10.88;;;6.28;;
24567;SDS011;12731;52.182;8.716;2022-12-18T10:47:50;10.65;;;6.35;;
24567;SDS011;12731;52.182;8.716;2022-12-18T10:50:23;14.05;;;6.72;;
24567;SDS011;12731;52.182;8.716;2022-12-18T10:53:18;10.50;;;6.20;;
24567;SDS011;12731;52.182;8.716;2022-12-18T10:55:46;10.23;;;6.20;;
24567;SDS011;12731;52.182;8.716;2022-12-18T11:01:12;10.73;;;6.03;;
24567;SDS011;12731;52.182;8.716;2022-12-18T11:06:16;16.77;;;7.53;;
24567;SDS011;12731;52.182;8.716;2022-12-18T11:08:46;12.07;;;6.50;;
24567;SDS011;12731;52.182;8.716;2022-12-18T11:11:26;10.30;;;6.55;;
24567;SDS011;12731;52.182;8.716;2022-12-18T11:16:42;9.32;;;6.18;;
24567;SDS011;12731;52.182;8.716;2022-12-18T11:19:33;9.48;;;5.95;;
24567;SDS011;12731;52.182;8.716;2022-12-18T11:22:01;10.18;;;6.03;;
24567;SDS011;12731;52.182;8.716;2022-12-18T11:24:31;10.50;;;6.07;;
24567;SDS011;12731;52.182;8.716;2022-12-18T11:27:06;10.98;;;6.38;;
24567;SDS011;12731;52.182;8.716;2022-12-18T11:34:45;10.35;;;6.28;;
24567;SDS011;12731;52.182;8.716;2022-12-18T11:37:17;12.35;;;6.63;;
24567;SDS011;12731;52.182;8.716;2022-12-18T11:39:51;10.90;;;6.38;;
24567;SDS011;12731;52.182;8.716;2022-12-18T11:42:24;10.15;;;6.82;;
24567;SDS011;12731;52.182;8.716;2022-12-18T11:44:58;10.57;;;6.80;;
24567;SDS011;12731;52.182;8.716;2022-12-18T11:50:16;12.45;;;7.78;;
24567;SDS011;12731;52.182;8.716;2022-12-18T11:52:45;13.88;;;7.13;;
24567;SDS011;12731;52.182;8.716;2022-12-18T11:55:16;13.63;;;6.82;;
24567;SDS011;12731;52.182;8.716;2022-12-18T12:00:49;10.35;;;6.60;;
24567;SDS011;12731;52.182;8.716;2022-12-18T12:09:26;8.90;;;5.60;;
24567;SDS011;12731;52.182;8.716;2022-12-18T12:14:37;11.95;;;6.85;;
24567;SDS011;12731;52.182;8.716;2022-12-18T12:17:28;10.35;;;6.47;;
24567;SDS011;12731;52.182;8.716;2022-12-18T12:20:06;11.13;;;6.57;;
24567;SDS011;12731;52.182;8.716;2022-12-18T12:22:44;10.52;;;6.72;;
24567;SDS011;12731;52.182;8.716;2022-12-18T12:25:23;13.68;;;6.60;;
24567;SDS011;12731;52.182;8.716;2022-12-18T12:30:24;11.18;;;6.60;;
24567;SDS011;12731;52.182;8.716;2022-12-18T12:33:03;12.73;;;6.43;;
24567;SDS011;12731;52.182;8.716;2022-12-18T12:35:42;11.68;;;6.82;;
24567;SDS011;12731;52.182;8.716;2022-12-18T12:40:49;13.10;;;6.25;;
24567;SDS011;12731;52.182;8.716;2022-12-18T12:43:38;12.65;;;6.55;;
24567;SDS011;12731;52.182;8.716;2022-12-18T12:46:16;10.60;;;6.22;;
24567;SDS011;12731;52.182;8.716;2022-12-18T12:48:56;8.95;;;5.85;;
24567;SDS011;12731;52.182;8.716;2022-12-18T12:51:29;9.55;;;5.70;;
24567;SDS011;12731;52.182;8.716;2022-12-18T12:53:58;9.02;;;5.43;;
24567;SDS011;12731;52.182;8.716;2022-12-18T12:56:27;11.00;;;5.88;;
24567;SDS011;12731;52.182;8.716;2022-12-18T12:59:11;10.05;;;5.88;;
24567;SDS011;12731;52.182;8.716;2022-12-18T13:01:49;9.10;;;5.50;;
24567;SDS011;12731;52.182;8.716;2022-12-18T13:04:41;11.15;;;5.53;;
24567;SDS011;12731;52.182;8.716;2022-12-18T13:07:14;9.38;;;5.57;;
24567;SDS011;12731;52.182;8.716;2022-12-18T13:13:03;10.25;;;5.78;;
24567;SDS011;12731;52.182;8.716;2022-12-18T13:15:47;11.82;;;5.72;;
24567;SDS011;12731;52.182;8.716;2022-12-18T13:20:44;9.73;;;5.30;;
24567;SDS011;12731;52.182;8.716;2022-12-18T13:23:31;11.43;;;6.13;;
24567;SDS011;12731;52.182;8.716;2022-12-18T13:25:59;9.38;;;5.38;;
24567;SDS011;12731;52.182;8.716;2022-12-18T13:29:05;12.40;;;5.43;;
24567;SDS011;12731;52.182;8.716;2022-12-18T13:36:53;8.32;;;5.60;;
24567;SDS011;12731;52.182;8.716;2022-12-18T13:39:25;10.60;;;6.43;;
24567;SDS011;12731;52.182;8.716;2022-12-18T13:47:25;9.95;;;5.93;;
24567;SDS011;12731;52.182;8.716;2022-12-18T13:50:20;10.63;;;5.65;;
24567;SDS011;12731;52.182;8.716;2022-12-18T13:52:57;8.85;;;5.68;;
24567;SDS011;12731;52.182;8.716;2022-12-18T13:55:24;8.27;;;5.32;;
24567;SDS011;12731;52.182;8.716;2022-12-18T13:57:50;10.23;;;5.47;;
24567;SDS011;12731;52.182;8.716;2022-12-18T14:00:29;10.90;;;6.13;;
24567;SDS011;12731;52.182;8.716;2022-12-18T14:02:57;11.88;;;6.38;;
24567;SDS011;12731;52.182;8.716;2022-12-18T14:05:25;9.95;;;5.80;;
24567;SDS011;12731;52.182;8.716;2022-12-18T14:07:52;10.73;;;5.80;;
24567;SDS011;12731;52.182;8.716;2022-12-18T14:10:20;11.13;;;5.55;;
24567;SDS011;12731;52.182;8.716;2022-12-18T14:13:08;10.63;;;6.82;;
24567;SDS011;12731;52.182;8.716;2022-12-18T14:15:44;13.60;;;6.80;;
24567;SDS011;12731;52.182;8.716;2022-12-18T14:20:56;11.30;;;6.38;;
24567;SDS011;12731;52.182;8.716;2022-12-18T14:28:53;10.85;;;6.45;;
24567;SDS011;12731;52.182;8.716;2022-12-18T14:31:24;9.70;;;5.65;;
24567;SDS011;12731;52.182;8.716;2022-12-18T14:33:52;9.13;;;5.07;;
24567;SDS011;12731;52.182;8.716;2022-12-18T14:36:26;10.98;;;6.25;;
24567;SDS011;12731;52.182;8.716;2022-12-18T14:38:54;10.68;;;6.60;;
24567;SDS011;12731;52.182;8.716;2022-12-18T14:41:22;11.88;;;6.75;;
24567;SDS011;12731;52.182;8.716;2022-12-18T14:43:49;13.57;;;6.25;;
24567;SDS011;12731;52.182;8.716;2022-12-18T14:48:59;11.68;;;6.35;;
24567;SDS011;12731;52.182;8.716;2022-12-18T14:51:30;13.50;;;6.18;;
24567;SDS011;12731;52.182;8.716;2022-12-18T14:53:59;9.48;;;5.97;;
24567;SDS011;12731;52.182;8.716;2022-12-18T14:56:30;11.10;;;5.97;;
24567;SDS011;12731;52.182;8.716;2022-12-18T14:58:59;10.50;;;5.90;;
24567;SDS011;12731;52.182;8.716;2022-12-18T15:01:29;9.30;;;5.90;;
24567;SDS011;12731;52.182;8.716;2022-12-18T15:03:58;10.52;;;6.18;;
24567;SDS011;12731;52.182;8.716;2022-12-18T15:09:04;12.25;;;6.38;;
24567;SDS011;12731;52.182;8.716;2022-12-18T15:11:43;10.45;;;6.38;;
24567;SDS011;12731;52.182;8.716;2022-12-18T15:14:21;11.35;;;6.88;;
24567;SDS011;12731;52.182;8.716;2022-12-18T15:17:01;10.07;;;6.32;;
24567;SDS011;12731;52.182;8.716;2022-12-18T15:22:00;14.13;;;7.18;;
24567;SDS011;12731;52.182;8.716;2022-12-18T15:24:32;10.75;;;6.65;;
24567;SDS011;12731;52.182;8.716;2022-12-18T15:26:59;10.52;;;6.22;;
24567;SDS011;12731;52.182;8.716;2022-12-18T15:29:25;13.55;;;7.20;;
24567;SDS011;12731;52.182;8.716;2022-12-18T15:31:59;12.85;;;6.90;;
24567;SDS011;12731;52.182;8.716;2022-12-18T15:34:30;12.32;;;7.00;;
24567;SDS011;12731;52.182;8.716;2022-12-18T15:36:57;12.85;;;7.15;;
24567;SDS011;12731;52.182;8.716;2022-12-18T15:39:23;11.70;;;6.28;;
24567;SDS011;12731;52.182;8.716;2022-12-18T15:41:50;11.48;;;7.03;;
24567;SDS011;12731;52.182;8.716;2022-12-18T15:44:35;12.93;;;7.55;;
24567;SDS011;12731;52.182;8.716;2022-12-18T15:47:02;12.07;;;7.15;;
24567;SDS011;12731;52.182;8.716;2022-12-18T15:49:28;13.77;;;7.78;;
24567;SDS011;12731;52.182;8.716;2022-12-18T15:51:56;14.80;;;7.97;;
24567;SDS011;12731;52.182;8.716;2022-12-18T15:54:24;14.02;;;7.70;;
24567;SDS011;12731;52.182;8.716;2022-12-18T15:57:10;14.43;;;7.70;;
24567;SDS011;12731;52.182;8.716;2022-12-18T15:59:49;12.23;;;7.75;;
24567;SDS011;12731;52.182;8.716;2022-12-18T16:02:17;12.25;;;7.32;;
24567;SDS011;12731;52.182;8.716;2022-12-18T16:04:44;13.98;;;7.95;;
24567;SDS011;12731;52.182;8.716;2022-12-18T16:07:12;13.05;;;7.90;;
24567;SDS011;12731;52.182;8.716;2022-12-18T16:09:44;14.48;;;7.90;;
24567;SDS011;12731;52.182;8.716;2022-12-18T16:12:18;12.30;;;7.80;;
24567;SDS011;12731;52.182;8.716;2022-12-18T16:14:45;13.70;;;8.00;;
24567;SDS011;12731;52.182;8.716;2022-12-18T16:17:13;14.48;;;7.75;;
24567;SDS011;12731;52.182;8.716;2022-12-18T16:19:43;14.05;;;7.68;;
24567;SDS011;12731;52.182;8.716;2022-12-18T16:22:15;13.60;;;7.93;;
24567;SDS011;12731;52.182;8.716;2022-12-18T16:24:46;14.25;;;8.35;;
24567;SDS011;12731;52.182;8.716;2022-12-18T16:27:12;15.98;;;8.82;;
24567;SDS011;12731;52.182;8.716;2022-12-18T16:29:39;13.90;;;8.38;;
24567;SDS011;12731;52.182;8.716;2022-12-18T16:32:05;15.52;;;9.10;;
24567;SDS011;12731;52.182;8.716;2022-12-18T16:34:32;14.40;;;9.07;;